createdAt,value
2023-01-26T00:01:45.807Z,12.60
2023-01-26T00:04:30.791Z,12.55
2023-01-26T00:07:16.013Z,12.07
2023-01-26T00:10:01.383Z,13.10
2023-01-26T00:12:46.706Z,11.82
2023-01-26T00:15:33.412Z,13.27
2023-01-26T00:18:18.570Z,12.77
2023-01-26T00:21:04.520Z,11.55
2023-01-26T00:23:50.729Z,11.90
2023-01-26T00:26:36.160Z,11.75
2023-01-26T00:29:21.592Z,12.07
2023-01-26T00:32:07.146Z,10.95
2023-01-26T00:34:52.594Z,11.85
2023-01-26T00:37:37.857Z,11.50
2023-01-26T00:40:23.189Z,11.13
2023-01-26T00:43:08.775Z,11.45
2023-01-26T00:45:54.205Z,11.63
2023-01-26T00:48:39.499Z,10.23
2023-01-26T00:51:24.900Z,11.52
2023-01-26T00:54:10.174Z,11.40
2023-01-26T00:56:55.794Z,10.48
2023-01-26T00:59:40.859Z,11.18
2023-01-26T01:02:26.199Z,11.35
2023-01-26T01:05:11.970Z,11.80
2023-01-26T01:07:57.857Z,10.52
2023-01-26T01:10:43.271Z,9.82
2023-01-26T01:13:28.482Z,10.95
2023-01-26T01:16:15.594Z,10.65
2023-01-26T01:19:01.048Z,10.95
2023-01-26T01:21:46.273Z,11.57
2023-01-26T01:24:31.669Z,10.88
2023-01-26T01:27:16.874Z,10.48
2023-01-26T01:30:07.480Z,10.18
2023-01-26T01:32:53.445Z,11.07
2023-01-26T01:35:38.540Z,10.40
2023-01-26T01:38:23.986Z,11.32
2023-01-26T01:41:09.492Z,10.73
2023-01-26T01:44:21.977Z,10.77
2023-01-26T01:47:23.156Z,10.85
2023-01-26T01:50:16.371Z,9.05
2023-01-26T01:55:47.208Z,10.13
2023-01-26T01:58:35.378Z,10.70
2023-01-26T02:01:20.620Z,10.25
2023-01-26T02:04:07.404Z,11.63
2023-01-26T02:06:55.902Z,10.25
2023-01-26T02:10:00.869Z,10.77
2023-01-26T02:12:53.457Z,11.02
2023-01-26T02:15:38.780Z,11.05
2023-01-26T02:18:24.207Z,12.10
2023-01-26T02:21:13.874Z,9.80
2023-01-26T02:24:12.469Z,11.45
2023-01-26T02:26:58.325Z,11.05
2023-01-26T02:29:43.646Z,10.20
2023-01-26T02:32:29.154Z,10.65
2023-01-26T02:35:14.420Z,10.60
2023-01-26T02:37:59.831Z,12.10
2023-01-26T02:41:03.594Z,12.07
2023-01-26T02:43:49.009Z,12.77
2023-01-26T02:46:34.595Z,12.23
2023-01-26T02:49:38.675Z,13.02
2023-01-26T02:52:26.008Z,12.05
2023-01-26T02:55:23.226Z,10.95
2023-01-26T02:58:08.369Z,11.25
2023-01-26T03:00:53.894Z,11.90
2023-01-26T03:03:42.165Z,11.25
2023-01-26T03:06:27.422Z,9.70
2023-01-26T03:09:12.935Z,11.63
2023-01-26T03:11:58.237Z,11.55
2023-01-26T03:14:43.635Z,13.02
2023-01-26T03:17:28.979Z,11.70
2023-01-26T03:20:32.814Z,12.65
2023-01-26T03:23:36.741Z,11.77
2023-01-26T03:26:40.598Z,12.20
2023-01-26T03:29:26.831Z,11.45
2023-01-26T03:32:12.394Z,11.30
2023-01-26T03:34:57.552Z,13.63
2023-01-26T03:37:43.590Z,11.85
2023-01-26T03:40:47.456Z,11.20
2023-01-26T03:43:51.514Z,11.13
2023-01-26T03:46:55.461Z,11.07
2023-01-26T03:49:59.330Z,10.43
2023-01-26T03:53:03.228Z,11.10
2023-01-26T03:56:07.046Z,9.75
2023-01-26T03:58:54.899Z,11.32
2023-01-26T04:02:03.116Z,11.35
2023-01-26T04:05:06.765Z,10.77
2023-01-26T04:08:10.669Z,12.55
2023-01-26T04:10:56.804Z,12.20
2023-01-26T04:14:00.542Z,11.20
2023-01-26T04:17:04.638Z,10.23
2023-01-26T04:20:09.618Z,10.27
2023-01-26T04:22:55.295Z,11.70
2023-01-26T04:25:40.728Z,10.40
2023-01-26T04:28:25.994Z,12.02
2023-01-26T04:31:11.405Z,10.95
2023-01-26T04:33:56.894Z,11.68
2023-01-26T04:36:43.383Z,11.63
2023-01-26T04:39:28.826Z,11.77
2023-01-26T04:42:14.164Z,10.38
2023-01-26T04:44:59.599Z,12.10
2023-01-26T04:47:44.838Z,9.48
2023-01-26T04:50:30.304Z,9.82
2023-01-26T04:53:15.541Z,11.57
2023-01-26T04:56:01.236Z,10.55
2023-01-26T04:58:46.343Z,10.18
2023-01-26T05:01:32.230Z,10.85
2023-01-26T05:04:17.651Z,11.73
2023-01-26T05:07:03.080Z,11.77
2023-01-26T05:09:48.362Z,10.30
2023-01-26T05:12:33.651Z,11.38
2023-01-26T05:15:18.947Z,10.40
2023-01-26T05:18:05.286Z,11.50
2023-01-26T05:20:50.307Z,11.55
2023-01-26T05:23:35.762Z,10.75
2023-01-26T05:26:21.235Z,11.18
2023-01-26T05:29:07.621Z,10.80
2023-01-26T05:31:52.981Z,11.52
2023-01-26T05:34:38.447Z,10.35
2023-01-26T05:37:27.850Z,10.60
2023-01-26T05:40:13.739Z,10.25
2023-01-26T05:42:59.416Z,12.60
2023-01-26T05:45:44.633Z,11.63
2023-01-26T05:48:29.872Z,11.40
2023-01-26T05:51:15.058Z,10.55
2023-01-26T05:54:00.524Z,11.38
2023-01-26T05:56:45.834Z,11.30
2023-01-26T05:59:31.228Z,11.65
2023-01-26T06:02:16.742Z,13.10
2023-01-26T06:05:01.637Z,11.70
2023-01-26T06:07:47.072Z,11.02
2023-01-26T06:10:32.337Z,12.48
2023-01-26T06:13:17.843Z,11.05
2023-01-26T06:16:03.425Z,12.27
2023-01-26T06:18:49.943Z,11.65
2023-01-26T06:21:35.579Z,13.05
2023-01-26T06:24:20.656Z,10.13
2023-01-26T06:27:11.852Z,13.13
2023-01-26T06:29:57.023Z,11.82
2023-01-26T06:32:42.342Z,13.07
2023-01-26T06:35:28.124Z,12.07
2023-01-26T06:38:15.333Z,12.95
2023-01-26T06:41:05.125Z,12.63
2023-01-26T06:43:50.328Z,11.30
2023-01-26T06:46:36.052Z,12.95
2023-01-26T06:49:21.306Z,12.60
2023-01-26T06:52:28.216Z,12.02
2023-01-26T06:55:23.767Z,10.40
2023-01-26T06:58:09.201Z,12.07
2023-01-26T07:00:56.531Z,11.20
2023-01-26T07:03:41.760Z,10.55
2023-01-26T07:06:27.165Z,12.38
2023-01-26T07:09:12.446Z,12.57
2023-01-26T07:11:58.024Z,11.85
2023-01-26T07:14:43.463Z,11.50
2023-01-26T07:17:28.686Z,12.15
2023-01-26T07:20:14.490Z,12.02
2023-01-26T07:23:00.775Z,11.13
2023-01-26T07:25:45.986Z,11.80
2023-01-26T07:28:31.688Z,11.77
2023-01-26T07:31:17.378Z,13.45
2023-01-26T07:34:02.915Z,12.77
2023-01-26T07:36:51.154Z,12.02
2023-01-26T07:39:36.143Z,11.30
2023-01-26T07:42:21.787Z,12.50
2023-01-26T07:45:07.408Z,12.38
2023-01-26T07:47:55.060Z,13.27
2023-01-26T07:50:40.338Z,12.63
2023-01-26T07:53:27.851Z,11.63
2023-01-26T07:56:16.028Z,12.82
2023-01-26T07:59:03.764Z,12.38
2023-01-26T08:01:50.403Z,11.10
2023-01-26T08:04:35.577Z,11.73
2023-01-26T08:07:21.028Z,13.50
2023-01-26T08:10:07.049Z,11.98
2023-01-26T08:12:52.150Z,12.20
2023-01-26T08:15:37.647Z,12.10
2023-01-26T08:18:23.072Z,12.18
2023-01-26T08:21:09.844Z,12.63
2023-01-26T08:23:55.520Z,12.32
2023-01-26T08:26:40.958Z,13.15
2023-01-26T08:29:26.306Z,12.55
2023-01-26T08:32:11.525Z,11.98
2023-01-26T08:34:57.091Z,11.45
2023-01-26T08:37:42.407Z,11.25
2023-01-26T08:40:28.019Z,11.35
2023-01-26T08:43:13.613Z,12.10
2023-01-26T08:45:59.204Z,13.50
2023-01-26T08:48:44.915Z,13.00
2023-01-26T08:51:29.890Z,12.25
2023-01-26T08:54:15.305Z,12.82
2023-01-26T08:57:00.761Z,10.95
2023-01-26T08:59:46.197Z,12.45
2023-01-26T09:02:31.930Z,11.75
2023-01-26T09:05:17.525Z,11.10
2023-01-26T09:08:03.874Z,11.75
2023-01-26T09:10:49.302Z,10.10
2023-01-26T09:13:35.314Z,10.02
2023-01-26T09:16:20.989Z,9.82
2023-01-26T09:19:06.375Z,9.27
2023-01-26T09:21:55.431Z,9.25
2023-01-26T09:24:40.806Z,8.68
2023-01-26T09:27:26.608Z,7.80
2023-01-26T09:30:12.524Z,10.55
2023-01-26T09:33:02.165Z,11.07
2023-01-26T09:35:47.730Z,8.82
2023-01-26T09:38:33.647Z,10.02
2023-01-26T09:41:46.273Z,8.45
2023-01-26T09:44:42.047Z,8.63
2023-01-26T09:47:42.096Z,8.93
2023-01-26T09:50:36.163Z,9.48
2023-01-26T09:53:55.847Z,9.23
2023-01-26T09:56:41.327Z,7.68
2023-01-26T09:59:52.856Z,7.80
2023-01-26T10:03:11.963Z,8.77
2023-01-26T10:05:57.102Z,7.78
2023-01-26T10:08:44.679Z,8.65
2023-01-26T10:11:38.805Z,8.02
2023-01-26T10:14:40.474Z,7.70
2023-01-26T10:17:34.145Z,8.43
2023-01-26T10:20:34.193Z,8.25
2023-01-26T10:23:29.082Z,8.55
2023-01-26T10:26:20.073Z,8.45
2023-01-26T10:29:05.455Z,8.25
2023-01-26T10:31:50.683Z,9.27
2023-01-26T10:34:40.972Z,9.23
2023-01-26T10:37:31.755Z,10.05
2023-01-26T10:40:17.441Z,9.10
2023-01-26T10:43:02.862Z,9.50
2023-01-26T10:45:48.608Z,10.80
2023-01-26T10:48:34.346Z,10.13
2023-01-26T10:51:24.866Z,9.00
2023-01-26T10:54:30.852Z,10.35
2023-01-26T10:57:28.893Z,11.88
2023-01-26T11:00:17.234Z,9.90
2023-01-26T11:03:18.198Z,10.75
2023-01-26T11:06:13.433Z,11.55
2023-01-26T11:09:19.098Z,11.27
2023-01-26T11:12:06.019Z,11.32
2023-01-26T11:15:04.693Z,11.07
2023-01-26T11:18:00.740Z,9.60
2023-01-26T11:21:00.701Z,10.75
2023-01-26T11:23:53.337Z,10.23
2023-01-26T11:27:32.969Z,11.77
2023-01-26T11:30:31.502Z,11.98
2023-01-26T11:33:39.819Z,12.27
2023-01-26T11:36:52.042Z,11.63
2023-01-26T11:39:43.480Z,10.93
2023-01-26T11:42:47.520Z,11.35
2023-01-26T11:45:51.140Z,12.38
2023-01-26T11:48:51.649Z,11.68
2023-01-26T11:51:42.531Z,11.90
2023-01-26T11:54:38.123Z,11.85
2023-01-26T11:57:43.517Z,10.95
2023-01-26T12:00:48.109Z,10.90
2023-01-26T12:03:51.867Z,10.95
2023-01-26T12:06:42.600Z,11.70
2023-01-26T12:09:36.484Z,11.95
2023-01-26T12:12:38.406Z,11.45
2023-01-26T12:15:39.547Z,12.55
2023-01-26T12:18:50.672Z,10.88
2023-01-26T12:21:45.202Z,11.75
2023-01-26T12:28:03.140Z,11.52
2023-01-26T12:31:04.520Z,13.57
2023-01-26T12:33:53.649Z,12.55
2023-01-26T12:36:55.450Z,12.13
2023-01-26T12:39:56.420Z,12.43
2023-01-26T12:42:53.834Z,12.82
2023-01-26T12:45:42.197Z,10.88
2023-01-26T12:48:48.680Z,12.68
2023-01-26T12:51:42.193Z,11.63
2023-01-26T12:54:40.644Z,12.57
2023-01-26T12:57:33.449Z,12.65
2023-01-26T13:00:22.398Z,12.85
2023-01-26T13:03:35.054Z,12.07
2023-01-26T13:06:24.714Z,13.57
2023-01-26T13:09:19.428Z,12.20
2023-01-26T13:12:04.889Z,13.43
2023-01-26T13:14:50.289Z,12.40
2023-01-26T13:17:52.690Z,14.13
2023-01-26T13:20:49.709Z,13.70
2023-01-26T13:23:43.720Z,13.02
2023-01-26T13:26:32.064Z,12.65
2023-01-26T13:29:31.813Z,13.02
2023-01-26T13:32:20.246Z,11.10
2023-01-26T13:35:12.842Z,11.00
2023-01-26T13:38:06.657Z,11.50
2023-01-26T13:40:51.794Z,10.80
2023-01-26T13:43:43.080Z,9.65
2023-01-26T13:46:40.621Z,11.35
2023-01-26T13:49:42.928Z,11.15
2023-01-26T13:52:28.542Z,11.38
2023-01-26T13:55:26.064Z,11.70
2023-01-26T13:58:17.391Z,11.55
2023-01-26T14:01:05.608Z,11.00
2023-01-26T14:04:03.148Z,11.45
2023-01-26T14:06:54.556Z,12.18
2023-01-26T14:09:49.650Z,12.18
2023-01-26T14:12:46.619Z,11.35
2023-01-26T14:15:33.099Z,11.20
2023-01-26T14:18:21.685Z,12.75
2023-01-26T14:21:18.649Z,11.40
2023-01-26T14:24:09.198Z,10.63
2023-01-26T14:26:55.044Z,10.52
2023-01-26T14:29:40.502Z,9.60
2023-01-26T14:32:29.465Z,10.45
2023-01-26T14:35:23.281Z,9.98
2023-01-26T14:38:11.347Z,10.02
2023-01-26T14:40:59.891Z,9.07
2023-01-26T14:43:45.330Z,10.10
2023-01-26T14:46:42.722Z,10.07
2023-01-26T14:49:42.953Z,9.27
2023-01-26T14:52:33.729Z,10.02
2023-01-26T14:55:34.300Z,10.18
2023-01-26T14:58:24.063Z,12.20
2023-01-26T15:01:09.650Z,9.88
2023-01-26T15:04:03.910Z,9.15
2023-01-26T15:06:49.224Z,9.85
2023-01-26T15:09:34.442Z,9.93
2023-01-26T15:12:21.558Z,10.57
2023-01-26T15:15:13.071Z,9.20
2023-01-26T15:18:13.213Z,10.88
2023-01-26T15:21:15.014Z,9.15
2023-01-26T15:24:00.860Z,9.38
2023-01-26T15:26:46.362Z,10.55
2023-01-26T15:29:33.170Z,9.45
2023-01-26T15:32:37.349Z,9.20
2023-01-26T15:35:25.649Z,10.73
2023-01-26T15:38:13.918Z,10.95
2023-01-26T15:40:59.390Z,9.25
2023-01-26T15:43:44.639Z,9.60
2023-01-26T15:46:30.146Z,7.93
2023-01-26T15:49:19.832Z,7.28
2023-01-26T15:52:15.478Z,9.30
2023-01-26T15:55:00.803Z,9.80
2023-01-26T15:57:46.099Z,9.35
2023-01-26T16:00:31.877Z,8.75
2023-01-26T16:03:19.354Z,10.00
2023-01-26T16:06:04.673Z,9.80
2023-01-26T16:08:50.578Z,9.38
2023-01-26T16:11:40.816Z,9.48
2023-01-26T16:14:26.127Z,9.35
2023-01-26T16:17:17.029Z,10.07
2023-01-26T16:20:02.652Z,11.10
2023-01-26T16:22:47.745Z,10.48
2023-01-26T16:25:33.210Z,11.95
2023-01-26T16:28:19.560Z,10.77
2023-01-26T16:31:17.101Z,10.93
2023-01-26T16:34:03.192Z,12.80
2023-01-26T16:36:48.217Z,11.23
2023-01-26T16:39:33.916Z,13.93
2023-01-26T16:42:21.403Z,11.27
2023-01-26T16:45:07.630Z,11.70
2023-01-26T16:47:55.635Z,12.55
2023-01-26T16:50:41.067Z,12.90
2023-01-26T16:53:29.429Z,12.57
2023-01-26T16:56:16.136Z,14.18
2023-01-26T16:59:01.274Z,13.45
2023-01-26T17:01:46.644Z,13.02
2023-01-26T17:04:32.137Z,14.05
2023-01-26T17:07:17.456Z,13.68
2023-01-26T17:10:03.013Z,13.13
2023-01-26T17:12:48.277Z,14.45
2023-01-26T17:15:33.909Z,15.88
2023-01-26T17:18:19.000Z,13.77
2023-01-26T17:21:04.677Z,12.40
2023-01-26T17:23:51.515Z,12.15
2023-01-26T17:26:36.544Z,11.45
2023-01-26T17:29:21.942Z,10.43
2023-01-26T17:32:07.746Z,12.18
2023-01-26T17:34:54.487Z,11.90
2023-01-26T17:37:40.174Z,12.45
2023-01-26T17:40:25.951Z,12.20
2023-01-26T17:43:11.564Z,11.15
2023-01-26T17:46:11.594Z,11.88
2023-01-26T17:48:56.989Z,12.20
2023-01-26T17:51:46.643Z,11.32
2023-01-26T17:54:32.435Z,12.10
2023-01-26T17:57:17.645Z,9.43
2023-01-26T18:00:04.407Z,10.95
2023-01-26T18:02:51.571Z,10.75
2023-01-26T18:05:36.726Z,11.52
2023-01-26T18:08:22.678Z,10.32
2023-01-26T18:11:10.225Z,9.57
2023-01-26T18:13:55.705Z,9.38
2023-01-26T18:16:41.735Z,10.60
2023-01-26T18:19:27.180Z,11.30
2023-01-26T18:22:12.462Z,10.02
2023-01-26T18:24:57.756Z,10.48
2023-01-26T18:27:43.295Z,9.50
2023-01-26T18:30:28.594Z,9.63
2023-01-26T18:33:14.030Z,10.48
2023-01-26T18:36:05.302Z,10.57
2023-01-26T18:38:59.768Z,9.23
2023-01-26T18:41:45.373Z,8.80
2023-01-26T18:44:31.331Z,10.52
2023-01-26T18:47:16.788Z,9.05
2023-01-26T18:50:02.658Z,8.70
2023-01-26T18:52:47.834Z,9.10
2023-01-26T18:55:34.515Z,9.57
2023-01-26T18:58:19.846Z,7.70
2023-01-26T19:01:10.381Z,8.35
2023-01-26T19:03:56.730Z,7.00
2023-01-26T19:06:41.902Z,8.60
2023-01-26T19:09:34.398Z,8.43
2023-01-26T19:12:19.724Z,8.77
2023-01-26T19:15:05.738Z,8.30
2023-01-26T19:17:51.206Z,10.23
2023-01-26T19:20:36.635Z,9.50
2023-01-26T19:23:22.078Z,8.25
2023-01-26T19:26:12.774Z,8.80
2023-01-26T19:28:58.659Z,10.13
2023-01-26T19:31:43.851Z,9.73
2023-01-26T19:34:31.139Z,9.55
2023-01-26T19:37:16.471Z,8.98
2023-01-26T19:40:01.817Z,10.65
2023-01-26T19:42:47.058Z,10.23
2023-01-26T19:45:32.972Z,9.27
2023-01-26T19:48:18.657Z,9.27
2023-01-26T19:51:10.218Z,8.77
2023-01-26T19:53:57.886Z,7.95
2023-01-26T19:56:43.064Z,10.05
2023-01-26T19:59:28.572Z,8.57
2023-01-26T20:02:13.922Z,8.18
2023-01-26T20:04:59.331Z,9.60
2023-01-26T20:07:45.066Z,8.25
2023-01-26T20:10:31.725Z,10.82
2023-01-26T20:13:16.896Z,9.80
2023-01-26T20:16:03.886Z,7.68
2023-01-26T20:18:49.856Z,7.93
2023-01-26T20:21:35.576Z,9.07
2023-01-26T20:24:21.193Z,9.73
2023-01-26T20:27:06.961Z,8.63
2023-01-26T20:29:52.592Z,7.97
2023-01-26T20:32:38.490Z,8.40
2023-01-26T20:35:23.499Z,7.93
2023-01-26T20:38:09.241Z,7.50
2023-01-26T20:40:54.292Z,7.35
2023-01-26T20:43:49.497Z,7.60
2023-01-26T20:46:41.129Z,7.13
2023-01-26T20:49:26.448Z,6.40
2023-01-26T20:52:11.934Z,7.55
2023-01-26T20:54:57.459Z,7.75
2023-01-26T20:57:42.753Z,6.45
2023-01-26T21:00:28.511Z,6.85
2023-01-26T21:03:13.878Z,7.78
2023-01-26T21:05:59.666Z,6.95
2023-01-26T21:08:45.931Z,7.00
2023-01-26T21:11:31.757Z,7.88
2023-01-26T21:14:18.264Z,6.78
2023-01-26T21:17:03.901Z,6.55
2023-01-26T21:19:49.908Z,7.47
2023-01-26T21:22:35.003Z,7.55
2023-01-26T21:25:20.330Z,5.63
2023-01-26T21:28:05.651Z,6.22
2023-01-26T21:31:00.626Z,6.90
2023-01-26T21:33:47.618Z,5.93
2023-01-26T21:36:34.147Z,5.90
2023-01-26T21:39:22.009Z,5.80
2023-01-26T21:42:07.256Z,6.63
2023-01-26T21:45:18.460Z,6.47
2023-01-26T21:48:24.380Z,5.90
2023-01-26T21:51:28.317Z,5.55
2023-01-26T21:54:13.873Z,5.65
2023-01-26T21:57:00.386Z,7.53
2023-01-26T21:59:45.629Z,5.78
2023-01-26T22:02:31.028Z,6.07
2023-01-26T22:05:16.682Z,4.45
2023-01-26T22:08:01.690Z,6.35
2023-01-26T22:10:53.963Z,6.30
2023-01-26T22:13:39.176Z,6.88
2023-01-26T22:16:25.134Z,6.03
2023-01-26T22:19:10.938Z,6.43
2023-01-26T22:21:56.241Z,5.32
2023-01-26T22:24:41.640Z,6.10
2023-01-26T22:27:27.245Z,5.53
2023-01-26T22:30:13.008Z,7.32
2023-01-26T22:32:58.716Z,6.03
2023-01-26T22:35:44.089Z,6.70
2023-01-26T22:38:29.525Z,6.80
2023-01-26T22:41:19.674Z,5.90
2023-01-26T22:44:05.467Z,6.28
2023-01-26T22:46:52.485Z,6.95
2023-01-26T22:49:37.792Z,6.72
2023-01-26T22:52:23.324Z,6.38
2023-01-26T22:55:09.487Z,5.72
2023-01-26T22:57:54.618Z,6.40
2023-01-26T23:00:40.037Z,6.22
2023-01-26T23:03:25.354Z,5.63
2023-01-26T23:06:12.729Z,5.95
2023-01-26T23:09:04.469Z,5.85
2023-01-26T23:11:49.706Z,5.88
2023-01-26T23:14:35.232Z,6.55
2023-01-26T23:17:20.595Z,6.10
2023-01-26T23:20:06.935Z,6.65
2023-01-26T23:22:52.306Z,5.40
2023-01-26T23:25:52.675Z,5.13
2023-01-26T23:28:40.832Z,5.85
2023-01-26T23:31:26.117Z,6.32
2023-01-26T23:34:11.474Z,5.93
2023-01-26T23:36:56.838Z,6.78
2023-01-26T23:39:42.171Z,6.25
2023-01-26T23:42:27.737Z,6.43
2023-01-26T23:45:13.093Z,6.53
2023-01-26T23:47:58.958Z,6.53
2023-01-26T23:50:44.826Z,5.85
2023-01-26T23:53:30.713Z,6.93
2023-01-26T23:56:17.576Z,6.35
2023-01-26T23:59:02.691Z,6.75
